Wetterdaten: aktuell Montag, 25.01.2021 21:30
Datum Zeit Temp. Aussen Feuchte A. Sonne Luftdruck Regen Richtung Richtung Sonnen-Zeit Windben
25.01.2021 21:30 0,6 C 99 % 1 % 1013,0 hPa 0,0 l/m W 262 0 min 0,0 km/h (0 Bft)
25.01.2021 21:25 0,6 C 99 % 0 % 1013,0 hPa 0,0 l/m W 263 0 min 0,0 km/h (0 Bft)
25.01.2021 21:20 0,6 C 99 % 0 % 1013,0 hPa 0,0 l/m W 263 0 min 0,0 km/h (0 Bft)
25.01.2021 21:15 0,6 C 99 % 0 % 1013,0 hPa 0,0 l/m W 263 0 min 0,0 km/h (0 Bft)
25.01.2021 21:10 0,6 C 99 % 0 % 1013,0 hPa 0,0 l/m W 264 0 min 0,0 km/h (0 Bft)
25.01.2021 21:05 0,5 C 98 % 0 % 1013,1 hPa 0,0 l/m W 265 0 min 0,0 km/h (0 Bft)
25.01.2021 21:00 0,4 C 98 % 0 % 1013,1 hPa 0,0 l/m W 265 0 min 0,0 km/h (0 Bft)
25.01.2021 20:55 0,3 C 98 % 0 % 1013,1 hPa 0,0 l/m W 265 0 min 0,0 km/h (0 Bft)
25.01.2021 20:50 0,0 C 97 % 0 % 1013,1 hPa 0,0 l/m W 265 0 min 0,0 km/h (0 Bft)
25.01.2021 20:45 0,2 C 98 % 0 % 1013,1 hPa 0,0 l/m W 265 0 min 0,0 km/h (0 Bft)
25.01.2021 20:40 0,5 C 98 % 0 % 1013,1 hPa 0,0 l/m W 265 0 min 0,0 km/h (0 Bft)
25.01.2021 20:35 0,6 C 98 % 0 % 1013,0 hPa 0,0 l/m W 267 0 min 0,0 km/h (0 Bft)
25.01.2021 20:30 0,6 C 98 % 0 % 1012,0 hPa 0,0 l/m W 262 0 min 0,0 km/h (0 Bft)
25.01.2021 20:25 0,6 C 98 % 0 % 1012,0 hPa 0,0 l/m W 270 0 min 0,0 km/h (0 Bft)
25.01.2021 20:20 0,6 C 98 % 1 % 1012,0 hPa 0,0 l/m W 267 0 min 0,0 km/h (0 Bft)
25.01.2021 20:15 0,6 C 97 % 1 % 1012,0 hPa 0,0 l/m W 267 0 min 0,0 km/h (0 Bft)
25.01.2021 20:10 0,6 C 97 % 1 % 1012,0 hPa 0,0 l/m W 275 0 min 0,0 km/h (0 Bft)
25.01.2021 20:05 0,6 C 97 % 2 % 1012,0 hPa 0,0 l/m W 267 0 min 0,0 km/h (0 Bft)
25.01.2021 20:00 0,6 C 97 % 0 % 1012,0 hPa 0,0 l/m W 266 0 min 0,0 km/h (0 Bft)
25.01.2021 19:55 0,5 C 97 % 0 % 1012,0 hPa 0,0 l/m W 264 0 min 0,0 km/h (0 Bft)
25.01.2021 19:50 0,5 C 96 % 0 % 1012,0 hPa 0,0 l/m W 260 0 min 0,0 km/h (0 Bft)
25.01.2021 19:45 0,5 C 96 % 0 % 1012,0 hPa 0,0 l/m W-SW 254 0 min 0,0 km/h (0 Bft)
25.01.2021 19:40 0,5 C 96 % 0 % 1012,0 hPa 0,0 l/m W-SW 256 0 min 0,0 km/h (0 Bft)
25.01.2021 19:35 0,5 C 96 % 0 % 1012,0 hPa 0,0 l/m W-SW 255 0 min 0,0 km/h (0 Bft)
25.01.2021 19:30 0,5 C 96 % 0 % 1011,0 hPa 0,0 l/m W 263 0 min 0,0 km/h (0 Bft)
25.01.2021 19:25 0,5 C 96 % 0 % 1011,0 hPa 0,0 l/m W 263 0 min 0,0 km/h (0 Bft)
25.01.2021 19:20 0,4 C 95 % 0 % 1011,0 hPa 0,0 l/m W 276 0 min 0,0 km/h (0 Bft)
25.01.2021 19:15 0,1 C 95 % 0 % 1011,0 hPa 0,0 l/m W 259 0 min 0,0 km/h (0 Bft)
25.01.2021 19:10 -0,2 C 94 % 0 % 1011,1 hPa 0,0 l/m W-SW 256 0 min 0,0 km/h (0 Bft)
25.01.2021 19:05 -0,4 C 93 % 0 % 1011,1 hPa 0,0 l/m W-SW 256 0 min 0,0 km/h (0 Bft)
25.01.2021 19:00 -0,5 C 93 % 0 % 1011,1 hPa 0,0 l/m W-SW 256 0 min 0,0 km/h (0 Bft)
25.01.2021 18:55 -0,5 C 93 % 0 % 1011,1 hPa 0,0 l/m W-SW 256 0 min 0,0 km/h (0 Bft)
25.01.2021 18:50 -0,3 C 93 % 0 % 1011,1 hPa 0,0 l/m W-SW 258 0 min 0,0 km/h (0 Bft)
25.01.2021 18:45 -0,2 C 93 % 0 % 1011,1 hPa 0,0 l/m W 267 0 min 0,0 km/h (0 Bft)
25.01.2021 18:40 -0,2 C 92 % 0 % 1011,1 hPa 0,0 l/m W 269 0 min 0,0 km/h (0 Bft)
25.01.2021 18:35 0,0 C 93 % 0 % 1011,0 hPa 0,0 l/m W 262 0 min 0,0 km/h (0 Bft)
25.01.2021 18:30 0,2 C 93 % 3 % 1010,0 hPa 0,0 l/m W 265 0 min 0,0 km/h (0 Bft)
25.01.2021 18:25 0,3 C 93 % 6 % 1010,0 hPa 0,0 l/m W 263 0 min 0,0 km/h (0 Bft)
25.01.2021 18:20 0,3 C 93 % 8 % 1010,0 hPa 0,0 l/m W 261 0 min 0,0 km/h (0 Bft)
25.01.2021 18:15 0,3 C 92 % 10 % 1010,0 hPa 0,0 l/m W 267 0 min 0,0 km/h (0 Bft)
25.01.2021 18:10 0,2 C 92 % 12 % 1010,0 hPa 0,0 l/m W 267 0 min 0,0 km/h (0 Bft)
25.01.2021 18:05 0,3 C 92 % 16 % 1010,0 hPa 0,0 l/m W 270 0 min 0,0 km/h (0 Bft)
25.01.2021 18:00 0,4 C 92 % 19 % 1010,0 hPa 0,0 l/m W 272 0 min 0,0 km/h (0 Bft)
25.01.2021 17:55 0,6 C 92 % 23 % 1009,9 hPa 0,0 l/m W 267 0 min 0,0 km/h (0 Bft)
25.01.2021 17:50 0,6 C 92 % 24 % 1009,9 hPa 0,0 l/m W 267 0 min 0,0 km/h (0 Bft)
25.01.2021 17:45 0,6 C 92 % 24 % 1009,9 hPa 0,0 l/m W 267 0 min 0,0 km/h (0 Bft)
25.01.2021 17:40 0,6 C 91 % 25 % 1009,9 hPa 0,0 l/m W 267 0 min 0,0 km/h (0 Bft)
25.01.2021 17:35 0,6 C 91 % 27 % 1009,9 hPa 0,0 l/m W 267 0 min 0,0 km/h (0 Bft)
25.01.2021 17:30 0,6 C 91 % 27 % 1009,9 hPa 0,0 l/m W 266 0 min 0,0 km/h (0 Bft)
25.01.2021 17:25 0,6 C 91 % 28 % 1009,9 hPa 0,0 l/m W 262 0 min 0,0 km/h (0 Bft)
25.01.2021 17:20 0,8 C 91 % 29 % 1009,9 hPa 0,0 l/m W 273 0 min 0,0 km/h (0 Bft)
25.01.2021 17:15 0,8 C 91 % 33 % 1008,9 hPa 0,0 l/m W 268 0 min 0,0 km/h (0 Bft)
25.01.2021 17:10 0,8 C 91 % 34 % 1008,9 hPa 0,0 l/m W 265 0 min 0,0 km/h (0 Bft)
25.01.2021 17:05 0,9 C 90 % 36 % 1008,9 hPa 0,0 l/m W 266 0 min 0,0 km/h (0 Bft)
25.01.2021 17:00 0,9 C 90 % 38 % 1008,9 hPa 0,0 l/m W 274 0 min 0,0 km/h (0 Bft)
25.01.2021 16:55 0,9 C 90 % 40 % 1008,9 hPa 0,3 l/m W 268 5 min 0,0 km/h (0 Bft)
25.01.2021 16:50 0,9 C 90 % 43 % 1008,9 hPa 0,0 l/m W 268 5 min 0,0 km/h (0 Bft)
25.01.2021 16:45 1,0 C 89 % 46 % 1008,9 hPa 0,0 l/m W 261 5 min 0,0 km/h (0 Bft)
25.01.2021 16:40 1,0 C 89 % 50 % 1008,9 hPa 0,0 l/m W 270 5 min 0,0 km/h (0 Bft)
25.01.2021 16:35 1,0 C 89 % 56 % 1008,9 hPa 0,0 l/m W 265 5 min 0,0 km/h (0 Bft)
25.01.2021 16:30 1,0 C 89 % 58 % 1008,9 hPa 0,0 l/m W 265 5 min 0,0 km/h (0 Bft)
25.01.2021 16:25 1,0 C 89 % 56 % 1008,9 hPa 0,0 l/m W 265 5 min 0,0 km/h (0 Bft)
25.01.2021 16:20 1,0 C 89 % 53 % 1008,9 hPa 0,3 l/m W 273 5 min 0,0 km/h (0 Bft)
25.01.2021 16:15 1,0 C 88 % 50 % 1007,8 hPa 0,0 l/m W 274 5 min 0,0 km/h (0 Bft)
25.01.2021 16:10 1,0 C 88 % 49 % 1007,8 hPa 0,0 l/m W-SW 258 5 min 0,0 km/h (0 Bft)
25.01.2021 16:05 1,0 C 88 % 52 % 1007,8 hPa 0,0 l/m W 260 5 min 0,0 km/h (0 Bft)
25.01.2021 16:00 1,0 C 88 % 53 % 1007,8 hPa 0,0 l/m W 279 5 min 0,0 km/h (0 Bft)
25.01.2021 15:55 1,0 C 88 % 55 % 1007,8 hPa 0,0 l/m W 271 5 min 0,0 km/h (0 Bft)
25.01.2021 15:50 1,0 C 86 % 55 % 1007,8 hPa 0,0 l/m W 265 5 min 0,0 km/h (0 Bft)
25.01.2021 15:45 1,0 C 85 % 53 % 1007,8 hPa 0,0 l/m W-NW 287 0 min 14,7 km/h (3 Bft)
25.01.2021 15:40 1,0 C 84 % 59 % 1007,8 hPa 0,3 l/m W 269 5 min 18,6 km/h (3 Bft)
25.01.2021 15:35 1,0 C 83 % 58 % 1007,8 hPa 0,0 l/m W-NW 284 0 min 14,7 km/h (3 Bft)
25.01.2021 15:30 1,0 C 82 % 56 % 1007,8 hPa 0,0 l/m W 269 5 min 14,7 km/h (3 Bft)
25.01.2021 15:25 1,0 C 80 % 56 % 1007,8 hPa 0,0 l/m W 267 5 min 15,6 km/h (3 Bft)
25.01.2021 15:20 1,0 C 78 % 54 % 1007,8 hPa 0,0 l/m W 279 5 min 0,0 km/h (0 Bft)
25.01.2021 15:15 1,1 C 76 % 57 % 1006,8 hPa 0,0 l/m W 279 0 min 0,0 km/h (0 Bft)
25.01.2021 15:10 1,1 C 74 % 58 % 1006,8 hPa 0,0 l/m W 279 0 min 15,6 km/h (3 Bft)
25.01.2021 15:05 1,2 C 73 % 64 % 1006,8 hPa 0,0 l/m W 266 0 min 16,8 km/h (3 Bft)
25.01.2021 15:00 1,3 C 71 % 69 % 1006,8 hPa 0,0 l/m W 266 0 min 19,4 km/h (3 Bft)
25.01.2021 14:55 1,4 C 70 % 71 % 1006,8 hPa 0,0 l/m W 268 0 min 16,8 km/h (3 Bft)
25.01.2021 14:50 1,5 C 69 % 68 % 1006,7 hPa 0,0 l/m W 264 0 min 16,0 km/h (3 Bft)
25.01.2021 14:45 1,7 C 68 % 74 % 1006,7 hPa 0,0 l/m W 277 0 min 16,0 km/h (3 Bft)
25.01.2021 14:40 1,7 C 68 % 77 % 1006,7 hPa 0,0 l/m W 269 0 min 16,8 km/h (3 Bft)
25.01.2021 14:35 1,8 C 68 % 79 % 1006,7 hPa 0,0 l/m W 272 0 min 19,4 km/h (3 Bft)
25.01.2021 14:30 1,9 C 70 % 84 % 1006,7 hPa 0,0 l/m W 277 0 min 19,4 km/h (3 Bft)
25.01.2021 14:25 1,7 C 71 % 84 % 1006,7 hPa 0,3 l/m W 268 0 min 19,4 km/h (3 Bft)
25.01.2021 14:20 1,6 C 72 % 81 % 1006,7 hPa 0,0 l/m W 273 0 min 20,3 km/h (4 Bft)
25.01.2021 14:15 1,6 C 73 % 80 % 1005,7 hPa 0,0 l/m W 264 0 min 16,8 km/h (3 Bft)
25.01.2021 14:10 1,5 C 73 % 78 % 1005,7 hPa 0,0 l/m W 269 0 min 18,6 km/h (3 Bft)
25.01.2021 14:05 1,4 C 73 % 77 % 1005,7 hPa 0,0 l/m W 263 0 min 21,2 km/h (4 Bft)
25.01.2021 14:00 1,4 C 72 % 74 % 1005,7 hPa 0,0 l/m W 270 0 min 16,0 km/h (3 Bft)
25.01.2021 13:55 1,3 C 71 % 72 % 1005,7 hPa 0,0 l/m W-SW 258 0 min 16,0 km/h (3 Bft)
25.01.2021 13:50 1,4 C 69 % 70 % 1005,7 hPa 0,0 l/m W 267 0 min 16,0 km/h (3 Bft)
25.01.2021 13:45 1,5 C 68 % 70 % 1005,7 hPa 0,0 l/m W-SW 256 0 min 16,8 km/h (3 Bft)
25.01.2021 13:40 1,6 C 66 % 71 % 1005,7 hPa 0,0 l/m W 264 0 min 7,8 km/h (2 Bft)
25.01.2021 13:35 1,7 C 64 % 71 % 1005,7 hPa 0,0 l/m W 260 0 min 11,2 km/h (2 Bft)
25.01.2021 13:30 1,8 C 62 % 70 % 1005,7 hPa 0,0 l/m W 262 0 min 11,2 km/h (2 Bft)
25.01.2021 13:25 1,9 C 61 % 70 % 1005,7 hPa 0,0 l/m W-SW 256 0 min 0,0 km/h (0 Bft)
25.01.2021 13:20 2,0 C 60 % 70 % 1005,7 hPa 0,0 l/m W-SW 257 0 min 0,0 km/h (0 Bft)
25.01.2021 13:15 2,1 C 59 % 71 % 1005,6 hPa 0,0 l/m W 262 0 min 0,0 km/h (0 Bft)
25.01.2021 13:10 2,3 C 59 % 74 % 1005,6 hPa 0,0 l/m W-SW 255 0 min 0,0 km/h (0 Bft)
25.01.2021 13:05 2,4 C 58 % 75 % 1005,6 hPa 0,0 l/m S-SW 196 0 min 0,0 km/h (0 Bft)
25.01.2021 13:00 2,4 C 58 % 73 % 1005,6 hPa 0,0 l/m S-SW 196 0 min 0,0 km/h (0 Bft)
25.01.2021 12:55 2,5 C 58 % 72 % 1005,6 hPa 0,0 l/m S-SW 196 0 min 0,0 km/h (0 Bft)
25.01.2021 12:50 2,7 C 57 % 67 % 1005,6 hPa 0,0 l/m S-SW 196 0 min 0,0 km/h (0 Bft)
25.01.2021 12:45 2,9 C 57 % 70 % 1005,6 hPa 0,0 l/m S-SW 196 0 min 0,0 km/h (0 Bft)
25.01.2021 12:40 3,0 C 57 % 75 % 1005,5 hPa 0,0 l/m S-SW 196 0 min 0,0 km/h (0 Bft)
25.01.2021 12:35 2,9 C 57 % 75 % 1005,6 hPa 0,0 l/m S-SW 196 0 min 0,0 km/h (0 Bft)
25.01.2021 12:30 2,9 C 57 % 75 % 1005,6 hPa 0,0 l/m S 177 0 min 0,0 km/h (0 Bft)
25.01.2021 12:25 3,0 C 56 % 75 % 1005,5 hPa 0,0 l/m SW 215 0 min 0,0 km/h (0 Bft)
25.01.2021 12:20 3,0 C 56 % 74 % 1005,5 hPa 0,0 l/m S-SO 164 0 min 0,0 km/h (0 Bft)
25.01.2021 12:15 3,1 C 56 % 74 % 1005,5 hPa 0,0 l/m S-SO 164 0 min 0,0 km/h (0 Bft)
25.01.2021 12:10 3,2 C 56 % 79 % 1005,5 hPa 0,0 l/m S-SO 164 0 min 0,0 km/h (0 Bft)
25.01.2021 12:05 3,3 C 57 % 80 % 1005,5 hPa 0,0 l/m S-SO 164 0 min 0,0 km/h (0 Bft)
25.01.2021 12:00 3,3 C 57 % 82 % 1004,5 hPa 0,0 l/m S-SO 164 0 min 0,0 km/h (0 Bft)
25.01.2021 11:55 3,2 C 57 % 80 % 1004,5 hPa 0,0 l/m S-SO 164 0 min 0,0 km/h (0 Bft)
25.01.2021 11:50 3,2 C 58 % 77 % 1004,5 hPa 0,0 l/m S-SO 164 0 min 0,0 km/h (0 Bft)
25.01.2021 11:45 3,1 C 59 % 81 % 1004,5 hPa 0,0 l/m S-SO 164 0 min 0,0 km/h (0 Bft)
25.01.2021 11:40 2,9 C 61 % 80 % 1004,5 hPa 0,0 l/m S-SO 164 0 min 0,0 km/h (0 Bft)
25.01.2021 11:35 2,7 C 61 % 81 % 1004,6 hPa 0,0 l/m S-SO 164 0 min 0,0 km/h (0 Bft)
25.01.2021 11:30 2,3 C 61 % 81 % 1004,6 hPa 0,0 l/m S-SO 164 0 min 0,0 km/h (0 Bft)
25.01.2021 11:25 2,0 C 61 % 76 % 1004,6 hPa 0,0 l/m S-SO 164 0 min 0,0 km/h (0 Bft)
25.01.2021 11:20 1,9 C 61 % 74 % 1004,6 hPa 0,0 l/m S-SO 164 0 min 0,0 km/h (0 Bft)
25.01.2021 11:15 1,9 C 60 % 73 % 1004,6 hPa 0,0 l/m S-SO 164 0 min 0,0 km/h (0 Bft)
25.01.2021 11:10 1,9 C 61 % 72 % 1004,6 hPa 0,0 l/m S-SO 164 0 min 0,0 km/h (0 Bft)
25.01.2021 11:05 1,8 C 62 % 72 % 1004,7 hPa 0,0 l/m S-SO 164 0 min 0,0 km/h (0 Bft)
25.01.2021 11:00 1,6 C 61 % 68 % 1004,7 hPa 0,0 l/m S-SO 164 0 min 0,0 km/h (0 Bft)
25.01.2021 10:55 1,6 C 61 % 63 % 1004,7 hPa 0,0 l/m S-SO 164 0 min 0,0 km/h (0 Bft)
25.01.2021 10:50 1,6 C 60 % 60 % 1004,7 hPa 0,0 l/m S-SO 164 0 min 0,0 km/h (0 Bft)
25.01.2021 10:45 1,8 C 61 % 59 % 1004,7 hPa 0,0 l/m S-SO 164 0 min 0,0 km/h (0 Bft)
25.01.2021 10:40 1,9 C 63 % 66 % 1004,6 hPa 0,0 l/m S-SO 164 0 min 0,0 km/h (0 Bft)
25.01.2021 10:35 2,0 C 64 % 67 % 1004,6 hPa 0,0 l/m S-SO 164 0 min 0,0 km/h (0 Bft)
25.01.2021 10:30 2,1 C 66 % 69 % 1003,6 hPa 0,0 l/m S-SO 164 0 min 0,0 km/h (0 Bft)
25.01.2021 10:25 2,0 C 66 % 70 % 1003,6 hPa 0,0 l/m S-SO 164 0 min 0,0 km/h (0 Bft)
25.01.2021 10:20 2,0 C 69 % 71 % 1003,6 hPa 0,0 l/m S-SO 164 0 min 0,0 km/h (0 Bft)
25.01.2021 10:15 2,0 C 70 % 68 % 1003,6 hPa 0,0 l/m S-SO 164 0 min 0,0 km/h (0 Bft)
25.01.2021 10:10 1,9 C 71 % 68 % 1003,6 hPa 0,0 l/m S-SO 164 0 min 0,0 km/h (0 Bft)
25.01.2021 10:05 1,7 C 72 % 69 % 1003,6 hPa 0,0 l/m S-SO 164 0 min 0,0 km/h (0 Bft)
25.01.2021 10:00 1,5 C 73 % 68 % 1003,7 hPa 0,0 l/m S-SO 164 0 min 0,0 km/h (0 Bft)
25.01.2021 09:55 1,2 C 74 % 68 % 1003,7 hPa 0,0 l/m S-SO 164 0 min 0,0 km/h (0 Bft)
25.01.2021 09:50 0,9 C 74 % 64 % 1003,7 hPa 0,0 l/m S-SO 164 0 min 0,0 km/h (0 Bft)
25.01.2021 09:45 0,7 C 75 % 54 % 1003,7 hPa 0,0 l/m S-SO 164 0 min 0,0 km/h (0 Bft)
25.01.2021 09:40 0,6 C 75 % 42 % 1003,8 hPa 0,0 l/m S-SO 164 0 min 0,0 km/h (0 Bft)
25.01.2021 09:35 0,5 C 76 % 38 % 1003,8 hPa 0,0 l/m S-SO 164 0 min 0,0 km/h (0 Bft)
25.01.2021 09:30 0,5 C 77 % 36 % 1003,8 hPa 0,0 l/m S-SO 164 0 min 0,0 km/h (0 Bft)
25.01.2021 09:25 0,5 C 78 % 37 % 1003,8 hPa 0,0 l/m S-SO 164 0 min 0,0 km/h (0 Bft)
25.01.2021 09:20 0,6 C 79 % 37 % 1003,8 hPa 0,0 l/m S-SO 164 5 min 0,0 km/h (0 Bft)
25.01.2021 09:15 0,5 C 80 % 42 % 1003,8 hPa 0,0 l/m S-SO 164 5 min 0,0 km/h (0 Bft)
25.01.2021 09:10 0,4 C 80 % 44 % 1003,8 hPa 0,0 l/m S-SO 164 5 min 0,0 km/h (0 Bft)
25.01.2021 09:05 0,3 C 81 % 43 % 1003,8 hPa 0,0 l/m S-SO 164 5 min 0,0 km/h (0 Bft)
25.01.2021 09:00 0,2 C 81 % 38 % 1003,8 hPa 0,0 l/m S-SO 164 5 min 0,0 km/h (0 Bft)
25.01.2021 08:55 0,2 C 82 % 34 % 1003,8 hPa 0,0 l/m S-SO 164 5 min 0,0 km/h (0 Bft)
25.01.2021 08:50 0,1 C 82 % 30 % 1003,8 hPa 0,0 l/m S-SO 164 5 min 0,0 km/h (0 Bft)
25.01.2021 08:45 0,1 C 82 % 27 % 1002,8 hPa 0,0 l/m S-SO 164 5 min 0,0 km/h (0 Bft)
25.01.2021 08:40 0,0 C 82 % 24 % 1002,8 hPa 0,0 l/m S-SO 164 5 min 0,0 km/h (0 Bft)
25.01.2021 08:35 0,0 C 83 % 22 % 1002,8 hPa 0,0 l/m S-SO 164 5 min 0,0 km/h (0 Bft)
25.01.2021 08:30 -0,1 C 83 % 21 % 1002,8 hPa 0,0 l/m S-SO 164 5 min 0,0 km/h (0 Bft)
25.01.2021 08:25 -0,2 C 83 % 18 % 1002,8 hPa 0,0 l/m S-SO 164 5 min 0,0 km/h (0 Bft)
25.01.2021 08:20 -0,3 C 82 % 15 % 1002,8 hPa 0,0 l/m S-SO 164 5 min 0,0 km/h (0 Bft)
25.01.2021 08:15 -0,4 C 82 % 11 % 1002,8 hPa 0,0 l/m S-SO 164 5 min 0,0 km/h (0 Bft)
25.01.2021 08:10 -0,4 C 82 % 7 % 1002,8 hPa 0,0 l/m S-SO 164 0 min 0,0 km/h (0 Bft)
25.01.2021 08:05 -0,5 C 82 % 5 % 1002,9 hPa 0,0 l/m S-SO 164 0 min 0,0 km/h (0 Bft)
25.01.2021 08:00 -0,5 C 82 % 2 % 1002,9 hPa 0,0 l/m S-SO 164 0 min 0,0 km/h (0 Bft)
25.01.2021 07:55 -0,5 C 82 % 0 % 1002,9 hPa 0,0 l/m S-SO 164 0 min 6,0 km/h (2 Bft)
25.01.2021 07:50 -0,5 C 82 % 0 % 1002,9 hPa 0,0 l/m S-SO 164 0 min 0,0 km/h (0 Bft)
25.01.2021 07:45 -0,5 C 82 % 0 % 1002,9 hPa 0,0 l/m S-SO 164 0 min 0,0 km/h (0 Bft)
25.01.2021 07:40 -0,5 C 82 % 0 % 1002,9 hPa 0,0 l/m S-SO 164 0 min 0,0 km/h (0 Bft)
25.01.2021 07:35 -0,5 C 82 % 0 % 1002,9 hPa 0,0 l/m S-SO 164 0 min 0,0 km/h (0 Bft)
25.01.2021 07:30 -0,5 C 82 % 0 % 1001,8 hPa 0,0 l/m S-SO 164 0 min 0,0 km/h (0 Bft)
25.01.2021 07:25 -0,5 C 82 % 0 % 1001,8 hPa 0,0 l/m S-SO 164 0 min 6,0 km/h (2 Bft)
25.01.2021 07:20 -0,5 C 82 % 0 % 1001,8 hPa 0,0 l/m S-SO 162 0 min 0,0 km/h (0 Bft)
25.01.2021 07:15 -0,5 C 82 % 0 % 1001,8 hPa 0,0 l/m S-SO 160 0 min 7,8 km/h (2 Bft)
25.01.2021 07:10 -0,5 C 82 % 0 % 1001,8 hPa 0,0 l/m S-SO 166 0 min 0,0 km/h (0 Bft)
25.01.2021 07:05 -0,6 C 81 % 0 % 1001,8 hPa 0,0 l/m S-SO 152 0 min 6,0 km/h (2 Bft)
25.01.2021 07:00 -0,6 C 81 % 0 % 1001,8 hPa 0,0 l/m S-SO 157 0 min 7,8 km/h (2 Bft)
25.01.2021 06:55 -0,6 C 80 % 0 % 1001,8 hPa 0,0 l/m S-SO 149 0 min 7,8 km/h (2 Bft)
25.01.2021 06:50 -0,6 C 80 % 0 % 1001,8 hPa 0,0 l/m SO 143 0 min 7,8 km/h (2 Bft)
25.01.2021 06:45 -0,6 C 79 % 0 % 1001,8 hPa 0,0 l/m S-SO 157 0 min 10,4 km/h (2 Bft)
25.01.2021 06:40 -0,7 C 78 % 0 % 1001,8 hPa 0,0 l/m S 170 0 min 11,2 km/h (2 Bft)
25.01.2021 06:35 -0,6 C 78 % 0 % 1001,8 hPa 0,0 l/m S-SO 147 0 min 10,4 km/h (2 Bft)
25.01.2021 06:30 -0,7 C 77 % 0 % 1001,8 hPa 0,0 l/m SO 144 0 min 10,4 km/h (2 Bft)
25.01.2021 06:25 -0,7 C 76 % 0 % 1001,8 hPa 0,0 l/m S-SO 147 0 min 9,5 km/h (2 Bft)
25.01.2021 06:20 -0,7 C 75 % 0 % 1001,8 hPa 0,0 l/m S-SO 153 0 min 9,5 km/h (2 Bft)
25.01.2021 06:15 -0,6 C 74 % 0 % 1001,8 hPa 0,0 l/m SO 137 0 min 7,8 km/h (2 Bft)
25.01.2021 06:10 -0,6 C 73 % 0 % 1001,8 hPa 0,0 l/m S-SO 155 0 min 9,5 km/h (2 Bft)
25.01.2021 06:05 -0,7 C 73 % 0 % 1001,8 hPa 0,0 l/m SO 146 0 min 6,9 km/h (2 Bft)
25.01.2021 06:00 -0,6 C 72 % 0 % 1001,8 hPa 0,0 l/m SO 146 0 min 10,4 km/h (2 Bft)
25.01.2021 05:55 -0,6 C 71 % 0 % 1001,8 hPa 0,0 l/m S-SO 152 0 min 9,5 km/h (2 Bft)
25.01.2021 05:50 -0,6 C 70 % 0 % 1001,8 hPa 0,0 l/m S-SO 154 0 min 11,2 km/h (2 Bft)
25.01.2021 05:45 -0,5 C 69 % 0 % 1001,8 hPa 0,0 l/m SO 136 0 min 10,4 km/h (2 Bft)
25.01.2021 05:40 -0,5 C 68 % 0 % 1001,8 hPa 0,0 l/m SO 144 0 min 9,5 km/h (2 Bft)
25.01.2021 05:35 -0,5 C 66 % 0 % 1001,8 hPa 0,0 l/m S-SO 151 0 min 7,8 km/h (2 Bft)
25.01.2021 05:30 -0,4 C 64 % 0 % 1001,8 hPa 0,0 l/m S-SO 160 0 min 6,9 km/h (2 Bft)
25.01.2021 05:25 -0,3 C 62 % 0 % 1001,8 hPa 0,0 l/m S-SO 154 0 min 10,4 km/h (2 Bft)
25.01.2021 05:20 -0,2 C 60 % 0 % 1001,8 hPa 0,0 l/m S 171 0 min 10,4 km/h (2 Bft)
25.01.2021 05:15 -0,1 C 58 % 0 % 1001,8 hPa 0,0 l/m S-SO 158 0 min 12,1 km/h (2 Bft)
25.01.2021 05:10 0,0 C 57 % 0 % 1001,8 hPa 0,0 l/m S-SO 163 0 min 7,8 km/h (2 Bft)
25.01.2021 05:05 0,1 C 54 % 0 % 1001,7 hPa 0,0 l/m S-SO 159 0 min 10,4 km/h (2 Bft)
25.01.2021 05:00 0,1 C 53 % 0 % 1001,7 hPa 0,0 l/m O-NO 66 0 min 7,8 km/h (2 Bft)
25.01.2021 04:55 0,1 C 53 % 0 % 1001,7 hPa 0,0 l/m S-SO 166 0 min 6,0 km/h (2 Bft)
25.01.2021 04:50 0,1 C 54 % 0 % 1001,7 hPa 0,0 l/m S-SO 147 0 min 0,0 km/h (0 Bft)
25.01.2021 04:45 0,1 C 54 % 0 % 1001,7 hPa 0,0 l/m S-SO 149 0 min 0,0 km/h (0 Bft)
25.01.2021 04:40 0,1 C 54 % 0 % 1001,7 hPa 0,0 l/m S-SO 158 0 min 0,0 km/h (0 Bft)
25.01.2021 04:35 0,0 C 54 % 0 % 1001,8 hPa 0,0 l/m S-SO 151 0 min 0,0 km/h (0 Bft)
25.01.2021 04:30 0,0 C 54 % 0 % 1001,8 hPa 0,0 l/m O 86 0 min 0,0 km/h (0 Bft)
25.01.2021 04:25 -0,1 C 53 % 0 % 1001,8 hPa 0,0 l/m O 86 0 min 0,0 km/h (0 Bft)
25.01.2021 04:20 -0,1 C 53 % 0 % 1001,8 hPa 0,0 l/m O 86 0 min 0,0 km/h (0 Bft)
25.01.2021 04:15 -0,2 C 53 % 0 % 1001,8 hPa 0,0 l/m O 86 0 min 0,0 km/h (0 Bft)
25.01.2021 04:10 -0,2 C 52 % 0 % 1001,8 hPa 0,0 l/m O 86 0 min 0,0 km/h (0 Bft)
25.01.2021 04:05 -0,2 C 52 % 0 % 1001,8 hPa 0,0 l/m O 86 0 min 0,0 km/h (0 Bft)
25.01.2021 04:00 -0,1 C 51 % 0 % 1000,7 hPa 0,0 l/m O 86 0 min 0,0 km/h (0 Bft)
25.01.2021 03:55 0,0 C 51 % 0 % 1000,7 hPa 0,0 l/m O 86 0 min 0,0 km/h (0 Bft)
25.01.2021 03:50 0,1 C 51 % 0 % 1000,7 hPa 0,0 l/m O 86 0 min 0,0 km/h (0 Bft)
25.01.2021 03:45 0,1 C 51 % 0 % 1001,7 hPa 0,0 l/m O 86 0 min 0,0 km/h (0 Bft)
25.01.2021 03:40 0,1 C 51 % 0 % 1001,7 hPa 0,0 l/m O 86 0 min 0,0 km/h (0 Bft)
25.01.2021 03:35 0,1 C 51 % 0 % 1001,7 hPa 0,0 l/m O 86 0 min 0,0 km/h (0 Bft)
25.01.2021 03:30 0,1 C 50 % 0 % 1001,7 hPa 0,0 l/m O 86 0 min 0,0 km/h (0 Bft)
25.01.2021 03:25 0,2 C 50 % 0 % 1001,7 hPa 0,0 l/m O 86 0 min 0,0 km/h (0 Bft)
25.01.2021 03:20 0,1 C 50 % 0 % 1001,7 hPa 0,0 l/m O 98 0 min 0,0 km/h (0 Bft)
25.01.2021 03:15 0,1 C 51 % 0 % 1001,7 hPa 0,0 l/m O 80 0 min 0,0 km/h (0 Bft)
25.01.2021 03:10 0,1 C 52 % 0 % 1001,7 hPa 0,0 l/m O-NO 64 0 min 0,0 km/h (0 Bft)
25.01.2021 03:05 0,0 C 53 % 0 % 1001,8 hPa 0,0 l/m O-SO 105 0 min 0,0 km/h (0 Bft)
25.01.2021 03:00 0,0 C 53 % 0 % 1001,8 hPa 0,0 l/m O-SO 105 0 min 0,0 km/h (0 Bft)
25.01.2021 02:55 0,0 C 54 % 0 % 1001,8 hPa 0,0 l/m O-SO 113 0 min 0,0 km/h (0 Bft)
25.01.2021 02:50 0,0 C 53 % 0 % 1001,8 hPa 0,0 l/m SO 142 0 min 0,0 km/h (0 Bft)
25.01.2021 02:45 0,0 C 53 % 0 % 1001,8 hPa 0,0 l/m SO 136 0 min 0,0 km/h (0 Bft)
25.01.2021 02:40 0,0 C 53 % 0 % 1001,8 hPa 0,0 l/m S-SO 149 0 min 0,0 km/h (0 Bft)
25.01.2021 02:35 0,0 C 52 % 0 % 1001,8 hPa 0,0 l/m SO 135 0 min 0,0 km/h (0 Bft)
25.01.2021 02:30 0,0 C 52 % 0 % 1001,8 hPa 0,0 l/m S-SO 150 0 min 0,0 km/h (0 Bft)
25.01.2021 02:25 0,0 C 52 % 0 % 1001,8 hPa 0,0 l/m SO 134 0 min 0,0 km/h (0 Bft)
25.01.2021 02:20 0,0 C 52 % 0 % 1001,8 hPa 0,0 l/m SO 136 0 min 0,0 km/h (0 Bft)
25.01.2021 02:15 -0,1 C 52 % 0 % 1001,8 hPa 0,0 l/m S-SO 152 0 min 6,0 km/h (2 Bft)
25.01.2021 02:10 -0,2 C 52 % 0 % 1001,8 hPa 0,0 l/m S-SO 147 0 min 13,8 km/h (3 Bft)
25.01.2021 02:05 -0,3 C 52 % 0 % 1001,8 hPa 0,0 l/m O-SO 123 0 min 14,7 km/h (3 Bft)
25.01.2021 02:00 -0,3 C 53 % 0 % 1001,8 hPa 0,0 l/m S-SO 166 0 min 12,1 km/h (2 Bft)
25.01.2021 01:55 -0,3 C 56 % 0 % 1001,8 hPa 0,0 l/m SO 133 0 min 13,0 km/h (3 Bft)
25.01.2021 01:50 -0,4 C 56 % 0 % 1001,8 hPa 0,0 l/m SO 143 0 min 12,1 km/h (2 Bft)
25.01.2021 01:45 -0,5 C 57 % 0 % 1001,8 hPa 0,0 l/m O-SO 120 0 min 0,0 km/h (0 Bft)
25.01.2021 01:40 -0,6 C 57 % 0 % 1001,8 hPa 0,0 l/m S-SO 157 0 min 0,0 km/h (0 Bft)
25.01.2021 01:35 -0,7 C 58 % 0 % 1001,8 hPa 0,0 l/m S 175 0 min 0,0 km/h (0 Bft)
25.01.2021 01:30 -0,9 C 58 % 0 % 1002,9 hPa 0,0 l/m S-SO 150 0 min 0,0 km/h (0 Bft)
25.01.2021 01:25 -1,0 C 59 % 0 % 1002,9 hPa 0,0 l/m S-SO 153 0 min 0,0 km/h (0 Bft)
25.01.2021 01:20 -1,1 C 59 % 0 % 1002,9 hPa 0,0 l/m S-SO 153 0 min 0,0 km/h (0 Bft)
25.01.2021 01:15 -1,3 C 60 % 0 % 1002,9 hPa 0,0 l/m S 169 0 min 0,0 km/h (0 Bft)
25.01.2021 01:10 -1,4 C 60 % 0 % 1003,0 hPa 0,0 l/m SO 130 0 min 0,0 km/h (0 Bft)
25.01.2021 01:05 -1,5 C 59 % 0 % 1003,0 hPa 0,0 l/m S-SO 157 0 min 0,0 km/h (0 Bft)
25.01.2021 01:00 -1,4 C 59 % 0 % 1003,0 hPa 0,0 l/m S-SO 157 0 min 0,0 km/h (0 Bft)
25.01.2021 00:55 -1,3 C 59 % 0 % 1002,9 hPa 0,0 l/m S-SO 153 0 min 0,0 km/h (0 Bft)
25.01.2021 00:50 -1,2 C 59 % 0 % 1002,9 hPa 0,0 l/m SO 144 0 min 0,0 km/h (0 Bft)
25.01.2021 00:45 -1,1 C 59 % 0 % 1002,9 hPa 0,0 l/m SO 130 0 min 0,0 km/h (0 Bft)
25.01.2021 00:40 -1,2 C 60 % 0 % 1002,9 hPa 0,0 l/m SO 135 0 min 0,0 km/h (0 Bft)
25.01.2021 00:35 -1,1 C 61 % 0 % 1002,9 hPa 0,0 l/m SO 135 0 min 0,0 km/h (0 Bft)
25.01.2021 00:30 -1,1 C 61 % 0 % 1002,9 hPa 0,0 l/m O-SO 113 0 min 0,0 km/h (0 Bft)
25.01.2021 00:25 -1,2 C 62 % 0 % 1002,9 hPa 0,0 l/m SO 135 0 min 0,0 km/h (0 Bft)
25.01.2021 00:20 -1,3 C 64 % 0 % 1002,9 hPa 0,0 l/m S-SO 156 0 min 0,0 km/h (0 Bft)
25.01.2021 00:15 -1,4 C 65 % 0 % 1003,0 hPa 0,0 l/m S-SO 149 0 min 0,0 km/h (0 Bft)
25.01.2021 00:10 -1,6 C 65 % 0 % 1003,0 hPa 0,0 l/m S-SO 156 0 min 0,0 km/h (0 Bft)
25.01.2021 00:05 -1,7 C 64 % 0 % 1003,0 hPa 0,0 l/m S-SO 156 0 min 0,0 km/h (0 Bft)
25.01.2021 00:00 -1,7 C 65 % 0 % 1003,0 hPa 0,0 l/m S-SO 156 0 min 0,0 km/h (0 Bft)
_ Min-Zeit 00:00 03:20 - 03:50 - - - - 00:00
Minimum _ -1,7 C 50 % - 1000,7 hPa - - - - 0,0 km/h (0 Bft)
_ Max-Zeit 12:00 21:10 14:25 20:50 14:25 - - 08:15 14:05
Maximum _ 3,3 C 99 % 84 % 1013,1 hPa 0,3 l/m - - 5 min 21,2 km/h
W (4 Bft)
Durchschnitt _ 0,5 C 73 % #2:40 h 1005,4 hPa #1,2 l/m W - #2:40 h 2,9 km/h (1 Bft)